createdAt,value
2023-04-11T00:03:20.455Z,1.00
2023-04-11T00:07:22.357Z,0.98
2023-04-11T00:11:24.285Z,1.00
2023-04-11T00:15:26.673Z,0.82
2023-04-11T00:19:28.810Z,0.90
2023-04-11T00:23:30.652Z,1.20
2023-04-11T00:27:32.336Z,1.10
2023-04-11T00:31:35.386Z,1.10
2023-04-11T00:35:39.292Z,1.15
2023-04-11T00:39:41.034Z,1.30
2023-04-11T00:43:42.710Z,1.40
2023-04-11T00:47:44.537Z,1.20
2023-04-11T00:51:46.215Z,1.37
2023-04-11T00:55:48.247Z,1.77
2023-04-11T00:59:51.396Z,1.80
2023-04-11T01:03:53.673Z,1.80
2023-04-11T01:07:56.200Z,1.60
2023-04-11T01:11:59.445Z,1.92
2023-04-11T01:16:01.393Z,1.95
2023-04-11T01:20:05.336Z,2.37
2023-04-11T01:24:07.584Z,1.73
2023-04-11T01:28:09.849Z,1.83
2023-04-11T01:32:11.483Z,2.37
2023-04-11T01:36:13.372Z,2.00
2023-04-11T01:40:18.214Z,2.72
2023-04-11T01:44:20.796Z,2.45
2023-04-11T01:48:22.570Z,2.30
2023-04-11T01:52:24.290Z,2.25
2023-04-11T01:56:25.997Z,2.35
2023-04-11T02:00:27.641Z,2.40
2023-04-11T02:04:29.540Z,2.50
2023-04-11T02:08:31.610Z,2.47
2023-04-11T02:12:33.749Z,2.75
2023-04-11T02:16:54.092Z,2.28
2023-04-11T02:20:55.789Z,3.78
2023-04-11T02:24:57.425Z,2.95
2023-04-11T02:28:59.537Z,2.25
2023-04-11T02:33:01.544Z,2.28
2023-04-11T02:37:03.254Z,2.12
2023-04-11T02:41:05.904Z,2.75
2023-04-11T02:45:08.267Z,3.15
2023-04-11T02:49:10.134Z,2.65
2023-04-11T02:53:12.100Z,2.55
2023-04-11T02:57:13.805Z,3.10
2023-04-11T03:01:17.016Z,3.50
2023-04-11T03:05:18.753Z,3.72
2023-04-11T03:09:21.315Z,3.30
2023-04-11T03:13:23.097Z,2.50
2023-04-11T03:17:24.746Z,3.65
2023-04-11T03:21:27.194Z,3.17
2023-04-11T03:25:29.589Z,3.83
2023-04-11T03:29:32.464Z,3.85
2023-04-11T03:33:34.163Z,2.95
2023-04-11T03:37:36.405Z,5.15
2023-04-11T03:41:38.137Z,2.95
2023-04-11T03:45:39.782Z,3.85
2023-04-11T03:49:41.408Z,3.08
2023-04-11T03:53:43.048Z,3.17
2023-04-11T03:57:44.689Z,3.65
2023-04-11T04:01:46.393Z,3.53
2023-04-11T04:05:48.397Z,4.07
2023-04-11T04:09:50.610Z,3.75
2023-04-11T04:13:52.291Z,3.72
2023-04-11T04:17:54.050Z,4.05
2023-04-11T04:21:58.185Z,3.55
2023-04-11T04:26:02.020Z,3.50
2023-04-11T04:30:04.666Z,3.75
2023-04-11T04:34:10.531Z,3.75
2023-04-11T04:38:17.222Z,3.67
2023-04-11T04:42:18.872Z,3.20
2023-04-11T04:46:20.779Z,3.12
2023-04-11T04:50:22.530Z,3.17
2023-04-11T04:54:24.297Z,3.83
2023-04-11T04:58:27.381Z,3.58
2023-04-11T05:02:29.235Z,3.70
2023-04-11T05:06:32.407Z,3.50
2023-04-11T05:10:34.144Z,2.95
2023-04-11T05:14:35.934Z,3.83
2023-04-11T05:18:37.578Z,3.65
2023-04-11T05:22:39.303Z,4.43
2023-04-11T05:26:41.028Z,4.10
2023-04-11T05:30:42.718Z,4.15
2023-04-11T05:34:53.089Z,3.45
2023-04-11T05:38:55.037Z,3.90
2023-04-11T05:42:56.722Z,4.03
2023-04-11T05:46:58.377Z,3.25
2023-04-11T05:51:00.275Z,3.25
2023-04-11T05:55:02.035Z,3.00
2023-04-11T05:59:04.819Z,3.28
2023-04-11T06:03:07.865Z,3.15
2023-04-11T06:07:09.810Z,3.37
2023-04-11T06:11:11.718Z,3.53
2023-04-11T06:15:13.813Z,3.70
2023-04-11T06:19:15.586Z,4.18
2023-04-11T06:23:17.308Z,3.47
2023-04-11T06:27:19.011Z,3.30
2023-04-11T06:31:20.804Z,2.72
2023-04-11T06:35:24.890Z,3.65
2023-04-11T06:39:26.988Z,2.65
2023-04-11T06:43:28.639Z,3.25
2023-04-11T06:47:30.287Z,3.20
2023-04-11T06:51:32.298Z,3.58
2023-04-11T06:55:33.945Z,2.50
2023-04-11T06:59:35.596Z,3.12
2023-04-11T07:03:37.815Z,3.35
2023-04-11T07:07:39.796Z,2.80
2023-04-11T07:11:41.767Z,2.78
2023-04-11T07:15:43.428Z,2.95
2023-04-11T07:19:45.126Z,2.80
2023-04-11T07:23:46.958Z,2.80
2023-04-11T07:27:51.421Z,3.58
2023-04-11T07:31:53.407Z,3.00
2023-04-11T07:35:55.668Z,3.03
2023-04-11T07:39:57.316Z,2.33
2023-04-11T07:43:58.974Z,3.05
2023-04-11T07:48:00.858Z,1.95
2023-04-11T07:52:02.842Z,2.53
2023-04-11T07:56:05.007Z,3.08
2023-04-11T08:00:11.414Z,2.75
2023-04-11T08:04:13.692Z,2.58
2023-04-11T08:08:16.478Z,2.33
2023-04-11T08:12:18.127Z,1.85
2023-04-11T08:16:19.858Z,2.42
2023-04-11T08:20:22.173Z,2.30
2023-04-11T08:24:23.850Z,2.25
2023-04-11T08:28:25.541Z,2.58
2023-04-11T08:32:27.314Z,1.87
2023-04-11T08:36:29.951Z,1.70
2023-04-11T08:40:32.231Z,2.08
2023-04-11T08:44:34.051Z,1.45
2023-04-11T08:48:36.072Z,1.95
2023-04-11T08:52:39.394Z,1.58
2023-04-11T08:56:43.009Z,1.85
2023-04-11T09:00:45.214Z,1.85
2023-04-11T09:04:47.576Z,1.52
2023-04-11T09:08:49.542Z,1.70
2023-04-11T09:12:51.458Z,1.52
2023-04-11T09:16:55.658Z,1.50
2023-04-11T09:21:03.000Z,1.60
2023-04-11T09:29:06.465Z,1.83
2023-04-11T09:33:22.911Z,1.48
2023-04-11T09:37:24.694Z,1.37
2023-04-11T09:41:33.928Z,1.50
2023-04-11T09:45:47.809Z,1.33
2023-04-11T09:49:58.628Z,1.25
2023-04-11T09:54:02.063Z,1.40
2023-04-11T09:58:06.101Z,1.10
2023-04-11T10:02:08.146Z,1.30
2023-04-11T10:06:14.101Z,1.55
2023-04-11T10:10:20.436Z,1.25
2023-04-11T10:14:37.318Z,1.27
2023-04-11T10:19:00.316Z,1.40
2023-04-11T10:23:02.273Z,1.50
2023-04-11T10:27:04.806Z,1.58
2023-04-11T10:31:13.942Z,1.65
2023-04-11T10:35:18.356Z,1.65
2023-04-11T10:39:52.021Z,1.60
2023-04-11T10:44:19.406Z,1.40
2023-04-11T10:48:21.222Z,1.60
2023-04-11T10:52:24.060Z,1.73
2023-04-11T10:56:46.718Z,1.70
2023-04-11T11:00:54.193Z,1.83
2023-04-11T11:04:56.215Z,1.67
2023-04-11T11:08:59.459Z,1.98
2023-04-11T11:13:01.131Z,2.03
2023-04-11T11:17:03.080Z,1.67
2023-04-11T11:21:07.372Z,1.60
2023-04-11T11:25:11.148Z,1.58
2023-04-11T11:29:13.128Z,1.27
2023-04-11T11:33:17.767Z,1.70
2023-04-11T11:37:19.896Z,1.67
2023-04-11T11:41:21.790Z,1.87
2023-04-11T11:45:23.772Z,1.67
2023-04-11T11:49:25.481Z,1.80
2023-04-11T11:53:27.094Z,1.45
2023-04-11T11:57:28.829Z,1.73
2023-04-11T12:01:32.585Z,1.50
2023-04-11T12:05:34.898Z,1.70
2023-04-11T12:09:36.890Z,1.55
2023-04-11T12:13:38.565Z,1.80
2023-04-11T12:17:40.851Z,1.75
2023-04-11T12:21:42.539Z,1.83
2023-04-11T12:25:44.501Z,1.75
2023-04-11T12:29:49.252Z,1.60
2023-04-11T12:33:50.930Z,1.40
2023-04-11T12:37:52.641Z,1.60
2023-04-11T12:41:54.318Z,1.20
2023-04-11T12:45:56.094Z,1.40
2023-04-11T12:49:57.830Z,1.20
2023-04-11T12:53:59.474Z,1.55
2023-04-11T12:58:02.048Z,1.42
2023-04-11T13:02:03.907Z,1.15
2023-04-11T13:06:06.060Z,1.33
2023-04-11T13:10:08.384Z,2.10
2023-04-11T13:14:10.261Z,1.05
2023-04-11T13:18:11.943Z,1.33
2023-04-11T13:22:13.651Z,1.50
2023-04-11T13:26:15.296Z,1.77
2023-04-11T13:30:17.045Z,1.30
2023-04-11T13:34:18.826Z,1.50
2023-04-11T13:38:20.611Z,1.52
2023-04-11T13:42:22.459Z,1.33
2023-04-11T13:46:24.170Z,1.08
2023-04-11T13:50:25.849Z,1.40
2023-04-11T13:54:27.495Z,1.37
2023-04-11T13:58:32.368Z,1.25
2023-04-11T14:02:34.061Z,1.30
2023-04-11T14:06:37.419Z,1.08
2023-04-11T14:10:39.147Z,1.05
2023-04-11T14:14:40.814Z,1.00
2023-04-11T14:18:42.541Z,0.95
2023-04-11T14:22:44.970Z,0.85
2023-04-11T14:26:46.649Z,0.90
2023-04-11T14:30:48.471Z,0.90
2023-04-11T14:34:52.165Z,1.00
2023-04-11T14:38:53.802Z,1.10
2023-04-11T14:42:58.350Z,0.88
2023-04-11T14:47:00.369Z,1.10
2023-04-11T14:51:05.386Z,1.15
2023-04-11T14:55:07.940Z,1.05
2023-04-11T14:59:11.347Z,1.10
2023-04-11T15:03:13.256Z,1.50
2023-04-11T15:07:14.970Z,1.10
2023-04-11T15:11:16.656Z,0.90
2023-04-11T15:15:18.537Z,1.00
2023-04-11T15:19:20.180Z,1.20
2023-04-11T15:23:22.051Z,1.27
2023-04-11T15:27:23.863Z,1.70
2023-04-11T15:31:26.533Z,1.30
2023-04-11T15:35:28.852Z,1.30
2023-04-11T15:39:30.807Z,2.47
2023-04-11T15:43:32.900Z,1.52
2023-04-11T15:47:34.729Z,1.27
2023-04-11T15:51:36.415Z,1.20
2023-04-11T15:55:40.623Z,1.00
2023-04-11T15:59:42.276Z,0.90
2023-04-11T16:03:44.973Z,1.27
2023-04-11T16:07:47.837Z,0.80
2023-04-11T16:11:49.499Z,1.08
2023-04-11T16:15:51.251Z,1.77
2023-04-11T16:19:53.551Z,1.25
2023-04-11T16:23:55.832Z,0.95
2023-04-11T16:27:57.872Z,1.00
2023-04-11T16:31:59.523Z,1.00
2023-04-11T16:36:01.455Z,0.90
2023-04-11T16:40:07.731Z,1.50
2023-04-11T16:44:11.344Z,1.30
2023-04-11T16:48:13.139Z,1.17
2023-04-11T16:52:14.792Z,0.90
2023-04-11T16:56:19.461Z,1.33
2023-04-11T17:00:21.360Z,1.48
2023-04-11T17:04:23.092Z,0.98
2023-04-11T17:08:26.348Z,1.37
2023-04-11T17:12:28.151Z,0.80
2023-04-11T17:16:29.906Z,1.35
2023-04-11T17:20:31.683Z,1.40
2023-04-11T17:24:33.411Z,1.30
2023-04-11T17:28:35.371Z,1.70
2023-04-11T17:32:38.310Z,1.42
2023-04-11T17:36:42.762Z,2.17
2023-04-11T17:40:44.626Z,1.60
2023-04-11T17:44:46.362Z,1.37
2023-04-11T17:48:47.948Z,1.30
2023-04-11T17:52:49.593Z,1.23
2023-04-11T17:56:52.453Z,1.58
2023-04-11T18:00:56.631Z,1.42
2023-04-11T18:04:59.410Z,1.73
2023-04-11T18:09:02.319Z,1.35
2023-04-11T18:13:04.003Z,1.85
2023-04-11T18:17:05.706Z,1.33
2023-04-11T18:21:07.996Z,1.62
2023-04-11T18:25:10.121Z,1.25
2023-04-11T18:29:11.751Z,1.80
2023-04-11T18:33:13.446Z,1.20
2023-04-11T18:37:15.221Z,1.33
2023-04-11T18:41:17.692Z,1.87
2023-04-11T18:45:22.957Z,1.35
2023-04-11T18:49:24.645Z,1.37
2023-04-11T18:53:28.157Z,1.70
2023-04-11T18:57:33.831Z,1.60
2023-04-11T19:01:36.989Z,1.33
2023-04-11T19:05:39.029Z,1.48
2023-04-11T19:09:40.762Z,1.37
2023-04-11T19:13:42.363Z,1.40
2023-04-11T19:17:44.070Z,1.58
2023-04-11T19:21:45.840Z,1.67
2023-04-11T19:25:47.564Z,1.40
2023-04-11T19:29:49.265Z,1.98
2023-04-11T19:33:52.189Z,1.92
2023-04-11T19:37:53.898Z,1.60
2023-04-11T19:41:55.995Z,2.37
2023-04-11T19:45:57.763Z,1.98
2023-04-11T19:50:00.475Z,1.80
2023-04-11T19:54:02.710Z,1.70
2023-04-11T19:58:04.313Z,1.40
2023-04-11T20:02:06.238Z,1.73
2023-04-11T20:06:09.320Z,1.62
2023-04-11T20:10:11.797Z,1.58
2023-04-11T20:14:13.455Z,1.75
2023-04-11T20:18:15.609Z,1.70
2023-04-11T20:22:18.933Z,2.05
2023-04-11T20:26:21.678Z,1.85
2023-04-11T20:30:23.394Z,1.55
2023-04-11T20:34:25.267Z,1.65
2023-04-11T20:38:27.513Z,1.92
2023-04-11T20:42:31.430Z,1.90
2023-04-11T20:46:33.466Z,1.62
2023-04-11T20:50:35.838Z,1.83
2023-04-11T20:54:37.692Z,1.62
2023-04-11T20:58:39.383Z,1.60
2023-04-11T21:02:43.864Z,1.80
2023-04-11T21:06:46.039Z,2.08
2023-04-11T21:10:47.692Z,1.48
2023-04-11T21:14:49.306Z,1.58
2023-04-11T21:18:50.953Z,1.42
2023-04-11T21:22:53.424Z,1.80
2023-04-11T21:26:55.132Z,1.55
2023-04-11T21:30:57.031Z,1.40
2023-04-11T21:34:58.675Z,1.50
2023-04-11T21:39:00.283Z,1.50
2023-04-11T21:43:02.613Z,1.83
2023-04-11T21:47:04.647Z,1.73
2023-04-11T21:51:06.735Z,1.30
2023-04-11T21:55:09.215Z,1.60
2023-04-11T21:59:10.993Z,1.77
2023-04-11T22:03:17.869Z,2.00
2023-04-11T22:07:23.957Z,1.50
2023-04-11T22:11:25.668Z,1.50
2023-04-11T22:15:27.324Z,1.67
2023-04-11T22:19:33.686Z,1.73
2023-04-11T22:23:35.842Z,1.70
2023-04-11T22:27:38.152Z,1.52
2023-04-11T22:31:39.824Z,1.55
2023-04-11T22:35:47.454Z,1.60
2023-04-11T22:39:49.804Z,1.80
2023-04-11T22:43:51.454Z,1.50
2023-04-11T22:47:59.793Z,1.77
2023-04-11T22:52:02.101Z,1.67
2023-04-11T22:56:04.117Z,1.92
2023-04-11T23:00:07.320Z,1.73
2023-04-11T23:04:09.038Z,1.67
2023-04-11T23:08:10.801Z,1.85
2023-04-11T23:12:12.770Z,1.85
2023-04-11T23:16:14.659Z,1.50
2023-04-11T23:20:17.510Z,1.70
2023-04-11T23:24:19.170Z,1.37
2023-04-11T23:28:20.949Z,1.75
2023-04-11T23:32:22.789Z,1.67
2023-04-11T23:36:24.750Z,1.85
2023-04-11T23:40:26.501Z,1.90
2023-04-11T23:44:28.191Z,1.50
2023-04-11T23:48:29.939Z,1.37
2023-04-11T23:52:31.868Z,1.98
2023-04-11T23:56:33.660Z,1.27
